Time;durP1;ratioP1;P1;durP2;ratioP2;P2;SDS_P1;SDS_P2;PMS_P1;PMS_P2;Temp;Humidity;BMP_temperature;BMP_pressure;BME280_temperature;BME280_humidity;BME280_pressure;Samples;Min_cycle;Max_cycle;Signal;HPM_P1;HPM_P2
2022/06/12 00:00:08;;;;;;;12.40;4.28;;;14.70;99.90;;;;;;4947113;28;20050;-77
2022/06/12 00:02:34;;;;;;;14.00;5.13;;;14.70;99.90;;;;;;4981889;28;20461;-77
2022/06/12 00:05:00;;;;;;;12.70;4.05;;;14.70;99.90;;;;;;4977828;28;20078;-77
2022/06/12 00:07:26;;;;;;;12.77;4.40;;;14.70;99.90;;;;;;4959892;28;20038;-77
2022/06/12 00:09:51;;;;;;;9.35;3.65;;;14.70;99.90;;;;;;4992954;28;20038;-77
2022/06/12 00:12:18;;;;;;;15.88;4.30;;;14.70;99.90;;;;;;4975464;28;20518;-77
2022/06/12 00:14:44;;;;;;;11.63;4.07;;;14.60;99.90;;;;;;4974368;28;20073;-77
2022/06/12 00:17:09;;;;;;;11.15;4.30;;;14.80;99.90;;;;;;4956917;28;20105;-77
2022/06/12 00:19:35;;;;;;;13.13;4.20;;;14.60;99.90;;;;;;4974807;28;20054;-77
2022/06/12 00:22:01;;;;;;;11.02;4.20;;;14.60;99.90;;;;;;4950848;28;20047;-77
2022/06/12 00:24:27;;;;;;;12.02;4.10;;;14.60;99.90;;;;;;4972355;28;20467;-77
2022/06/12 00:26:56;;;;;;;12.52;4.15;;;14.50;99.90;;;;;;4971600;28;20042;-78
2022/06/12 00:29:26;;;;;;;9.20;4.50;;;14.60;99.90;;;;;;4965133;28;20047;-77
2022/06/12 00:31:56;;;;;;;12.50;3.88;;;14.50;99.90;;;;;;4970512;28;20124;-77
2022/06/12 00:34:26;;;;;;;10.70;4.90;;;14.50;99.90;;;;;;4973604;28;20046;-77
2022/06/12 00:36:53;;;;;;;10.30;4.03;;;14.50;99.90;;;;;;4974542;28;20525;-77
2022/06/12 00:39:19;;;;;;;8.57;3.90;;;14.50;99.90;;;;;;4974105;28;20045;-78
2022/06/12 00:41:48;;;;;;;10.13;3.85;;;14.40;99.90;;;;;;4970695;28;20506;-77
2022/06/12 00:44:19;;;;;;;12.20;4.30;;;14.40;99.90;;;;;;4957934;28;20125;-78
2022/06/12 00:46:52;;;;;;;9.93;4.35;;;14.80;99.90;;;;;;4973818;28;20433;-77
2022/06/12 00:49:28;;;;;;;10.95;4.07;;;14.50;99.90;;;;;;4974018;28;20057;-77
2022/06/12 00:51:59;;;;;;;8.88;4.30;;;14.30;99.90;;;;;;4956962;28;20350;-77
2022/06/12 00:54:25;;;;;;;9.63;4.45;;;14.30;99.90;;;;;;4969864;28;20158;-78
2022/06/12 00:56:54;;;;;;;9.93;4.10;;;14.20;99.90;;;;;;4990137;28;20057;-77
2022/06/12 00:59:32;;;;;;;8.80;3.88;;;14.20;99.90;;;;;;4956800;28;20038;-77
2022/06/12 01:01:59;;;;;;;7.38;3.80;;;14.70;99.90;;;;;;4957486;28;20042;-77
2022/06/12 01:07:14;;;;;;;9.18;3.78;;;14.10;99.90;;;;;;4973406;28;20430;-77
2022/06/12 01:09:44;;;;;;;9.40;4.10;;;14.30;99.90;;;;;;4961523;28;20478;-77
2022/06/12 01:12:15;;;;;;;11.32;4.20;;;14.20;99.90;;;;;;4971458;28;20034;-77
2022/06/12 01:14:47;;;;;;;10.13;4.50;;;14.10;99.90;;;;;;4973585;28;20034;-77
2022/06/12 01:17:14;;;;;;;9.82;3.95;;;14.10;99.90;;;;;;4956385;28;20053;-76
2022/06/12 01:19:50;;;;;;;11.68;3.60;;;14.10;99.90;;;;;;4973395;28;20453;-76
2022/06/12 01:22:34;;;;;;;9.13;3.75;;;14.00;99.90;;;;;;4973376;28;20042;-77
2022/06/12 01:25:00;;;;;;;9.20;4.00;;;14.00;99.90;;;;;;4957457;28;20042;-76
2022/06/12 01:27:50;;;;;;;11.18;3.85;;;14.30;99.90;;;;;;4980430;28;20146;-76
2022/06/12 01:30:27;;;;;;;9.05;3.42;;;14.00;99.90;;;;;;4978468;28;20162;-76
2022/06/12 01:33:13;;;;;;;10.00;4.07;;;13.90;99.90;;;;;;4978312;28;20367;-77
2022/06/12 01:36:04;;;;;;;11.43;4.10;;;13.90;99.90;;;;;;4976917;28;20124;-77
2022/06/12 01:38:45;;;;;;;8.05;3.88;;;13.90;99.90;;;;;;4971436;28;20061;-77
2022/06/12 01:41:34;;;;;;;10.07;4.72;;;13.80;99.90;;;;;;4980107;28;20499;-76
2022/06/12 01:44:26;;;;;;;13.68;5.15;;;13.90;99.90;;;;;;4979731;28;20398;-77
2022/06/12 01:47:24;;;;;;;11.03;4.87;;;13.90;99.90;;;;;;4970021;28;20419;-77
2022/06/12 01:50:06;;;;;;;10.45;4.63;;;13.90;99.90;;;;;;4964789;28;20503;-77
2022/06/12 01:52:53;;;;;;;9.52;4.55;;;13.90;99.90;;;;;;4976651;28;20150;-76
2022/06/12 01:56:00;;;;;;;8.88;4.50;;;13.90;99.90;;;;;;4997166;28;20124;-77
2022/06/12 01:59:00;;;;;;;9.90;4.13;;;13.90;99.90;;;;;;4929356;28;20081;-77
2022/06/12 02:01:33;;;;;;;9.90;4.35;;;13.80;99.90;;;;;;4974297;28;20079;-76
2022/06/12 02:04:27;;;;;;;10.02;4.32;;;13.80;99.90;;;;;;4977558;28;20034;-77
2022/06/12 02:07:08;;;;;;;10.38;4.20;;;13.90;99.90;;;;;;4956857;28;20129;-76
2022/06/12 02:09:46;;;;;;;9.68;3.72;;;13.90;99.90;;;;;;4991415;28;20049;-76
2022/06/12 02:15:09;;;;;;;8.68;3.80;;;14.10;99.90;;;;;;4980290;28;20058;-76
2022/06/12 02:17:41;;;;;;;7.93;3.38;;;13.80;99.90;;;;;;4979716;28;20483;-76
2022/06/12 02:20:10;;;;;;;9.70;3.92;;;13.80;99.90;;;;;;4978137;28;20046;-76
2022/06/12 02:22:39;;;;;;;11.07;3.83;;;13.80;99.90;;;;;;4979286;28;20053;-76
2022/06/12 02:25:05;;;;;;;14.27;4.40;;;13.80;99.90;;;;;;4996977;28;20049;-76
2022/06/12 02:27:32;;;;;;;13.57;3.78;;;13.80;99.90;;;;;;4979666;28;20490;-76
2022/06/12 02:30:07;;;;;;;11.65;3.90;;;13.90;99.90;;;;;;4959608;28;20402;-76
2022/06/12 02:32:42;;;;;;;9.25;3.58;;;13.80;99.90;;;;;;4977468;28;20521;-76
2022/06/12 02:35:32;;;;;;;10.95;3.25;;;13.80;99.90;;;;;;4979122;28;20065;-76
2022/06/12 02:38:11;;;;;;;10.10;3.20;;;13.70;99.90;;;;;;4957380;28;20073;-76
2022/06/12 02:40:41;;;;;;;10.43;3.05;;;13.70;99.90;;;;;;4976868;28;20038;-76
2022/06/12 02:43:12;;;;;;;9.00;3.00;;;13.70;99.90;;;;;;4976156;28;20092;-77
2022/06/12 02:45:53;;;;;;;9.98;3.17;;;14.10;99.90;;;;;;4964973;28;20062;-76
2022/06/12 02:48:20;;;;;;;7.50;3.10;;;13.70;99.90;;;;;;4973449;28;20049;-76
2022/06/12 02:51:09;;;;;;;11.07;3.45;;;13.80;99.90;;;;;;4956854;28;20074;-76
2022/06/12 02:53:49;;;;;;;9.55;3.40;;;13.60;99.90;;;;;;4975718;28;20157;-76
2022/06/12 02:56:47;;;;;;;8.80;3.40;;;13.60;99.90;;;;;;4958528;28;20030;-76
2022/06/12 02:59:33;;;;;;;8.82;3.47;;;13.60;99.90;;;;;;4975536;28;20053;-76
2022/06/12 03:02:42;;;;;;;11.45;3.53;;;14.20;99.90;;;;;;4953661;28;20149;-76
2022/06/12 03:05:13;;;;;;;8.80;3.00;;;13.60;99.90;;;;;;4931948;28;20149;-76
2022/06/12 03:07:39;;;;;;;7.70;2.88;;;13.60;99.90;;;;;;4975439;28;21271;-77
2022/06/12 03:10:11;;;;;;;8.38;3.17;;;14.10;99.90;;;;;;4975223;28;20049;-76
2022/06/12 03:12:37;;;;;;;12.80;3.30;;;13.50;99.90;;;;;;4975544;28;20042;-77
2022/06/12 03:15:08;;;;;;;11.43;3.55;;;14.00;99.90;;;;;;4977987;28;20041;-76
2022/06/12 03:17:34;;;;;;;10.68;3.67;;;13.50;99.90;;;;;;4972401;28;20046;-77
2022/06/12 03:20:00;;;;;;;7.18;3.00;;;13.50;99.90;;;;;;4992131;28;20046;-77
2022/06/12 03:22:43;;;;;;;11.60;3.22;;;13.60;99.90;;;;;;4993380;28;20034;-76
2022/06/12 03:25:23;;;;;;;9.73;3.20;;;13.50;99.90;;;;;;4975284;28;20553;-76
2022/06/12 03:28:19;;;;;;;10.35;3.00;;;13.50;99.90;;;;;;4975774;28;20121;-77
2022/06/12 03:30:53;;;;;;;6.90;3.00;;;13.60;99.90;;;;;;4985423;28;20054;-76
2022/06/12 03:33:29;;;;;;;11.05;2.97;;;13.90;99.90;;;;;;4972721;28;20042;-77
2022/06/12 03:36:08;;;;;;;10.00;3.20;;;13.50;99.90;;;;;;4986715;28;20166;-77
2022/06/12 03:38:39;;;;;;;11.85;3.13;;;13.50;99.90;;;;;;4990731;28;20049;-77
2022/06/12 03:41:20;;;;;;;11.10;3.05;;;13.50;99.90;;;;;;4959825;28;20057;-77
2022/06/12 03:44:14;;;;;;;6.55;2.88;;;13.50;99.90;;;;;;4975437;28;20053;-76
2022/06/12 03:46:46;;;;;;;10.90;3.03;;;13.40;99.90;;;;;;4970666;28;20089;-76
2022/06/12 03:49:40;;;;;;;7.65;3.08;;;13.40;99.90;;;;;;4975082;28;20035;-76
2022/06/12 03:52:23;;;;;;;14.07;3.47;;;13.40;99.90;;;;;;4975179;28;20050;-76
2022/06/12 03:55:13;;;;;;;10.50;3.08;;;13.40;99.90;;;;;;4975616;28;20038;-77
2022/06/12 03:57:52;;;;;;;9.93;3.10;;;13.40;99.90;;;;;;4987764;28;20042;-76
2022/06/12 04:00:33;;;;;;;6.38;2.92;;;13.40;99.90;;;;;;4975145;28;20442;-76
2022/06/12 04:03:12;;;;;;;8.82;3.00;;;13.40;99.90;;;;;;4956851;28;20509;-76
2022/06/12 04:05:42;;;;;;;10.13;4.07;;;13.40;99.90;;;;;;4972805;28;20046;-77
2022/06/12 04:08:15;;;;;;;9.05;3.05;;;13.50;99.90;;;;;;4972424;28;20430;-77
2022/06/12 04:10:42;;;;;;;8.60;2.95;;;13.40;99.90;;;;;;4981836;28;20121;-77
2022/06/12 04:13:12;;;;;;;10.70;3.15;;;13.40;99.90;;;;;;4973147;28;20046;-77
2022/06/12 04:16:07;;;;;;;9.18;2.92;;;13.40;99.90;;;;;;4975948;28;20038;-77
2022/06/12 04:18:33;;;;;;;10.13;3.28;;;13.30;99.90;;;;;;4970911;28;20055;-76
2022/06/12 04:21:39;;;;;;;11.60;3.13;;;13.50;99.90;;;;;;4974914;28;20035;-76
2022/06/12 04:24:10;;;;;;;12.25;3.50;;;13.30;99.90;;;;;;4905425;29;20040;-77
2022/06/12 04:27:07;;;;;;;11.23;3.50;;;13.40;99.90;;;;;;4964914;28;20054;-77
2022/06/12 04:29:39;;;;;;;8.13;3.33;;;13.30;99.90;;;;;;4964252;28;20506;-77
2022/06/12 04:32:07;;;;;;;10.90;3.38;;;13.30;99.90;;;;;;4974756;28;20410;-77
2022/06/12 04:34:36;;;;;;;8.65;3.20;;;13.30;99.90;;;;;;4972516;28;20050;-77
2022/06/12 04:37:10;;;;;;;9.63;3.60;;;13.80;99.90;;;;;;4974780;28;20388;-77
2022/06/12 04:39:36;;;;;;;10.88;3.40;;;13.40;99.90;;;;;;4972958;28;20050;-76
2022/06/12 04:42:04;;;;;;;10.75;3.75;;;13.50;99.90;;;;;;4990645;28;20407;-77
2022/06/12 04:44:31;;;;;;;11.07;3.45;;;13.40;99.90;;;;;;4975105;28;20035;-77
2022/06/12 04:46:59;;;;;;;13.95;3.13;;;13.40;99.90;;;;;;4979843;28;20716;-77
2022/06/12 04:49:29;;;;;;;9.70;3.47;;;13.40;99.90;;;;;;4974204;28;20072;-77
2022/06/12 04:51:58;;;;;;;10.15;3.67;;;13.30;99.90;;;;;;4977446;23;20065;-74
2022/06/12 04:54:26;;;;;;;12.05;3.47;;;13.40;99.90;;;;;;4991569;28;20033;-73
2022/06/12 04:56:52;;;;;;;9.57;3.60;;;13.50;99.90;;;;;;4994060;28;20512;-73
2022/06/12 04:59:19;;;;;;;9.48;3.40;;;13.40;99.90;;;;;;4992743;28;20069;-73
2022/06/12 05:01:46;;;;;;;11.98;3.78;;;13.50;99.90;;;;;;4993712;28;20042;-74
2022/06/12 05:04:12;;;;;;;11.23;3.85;;;13.50;99.90;;;;;;4993846;28;20077;-74
2022/06/12 05:06:39;;;;;;;10.75;3.83;;;13.50;99.90;;;;;;4993620;28;20041;-73
2022/06/12 05:09:06;;;;;;;9.10;3.30;;;13.50;99.90;;;;;;5010792;28;20128;-74
2022/06/12 05:11:32;;;;;;;13.13;3.80;;;13.50;99.90;;;;;;4993307;28;20042;-74
2022/06/12 05:13:58;;;;;;;12.98;3.65;;;13.60;99.90;;;;;;4993636;28;20046;-74
2022/06/12 05:16:29;;;;;;;11.02;3.58;;;13.50;99.90;;;;;;4993829;28;20085;-74
2022/06/12 05:18:55;;;;;;;12.02;3.78;;;13.60;99.90;;;;;;4993068;28;20038;-74
2022/06/12 05:21:22;;;;;;;13.43;3.90;;;13.60;99.90;;;;;;4992637;28;20087;-74
2022/06/12 05:23:48;;;;;;;9.63;3.50;;;13.60;99.90;;;;;;4993315;28;20145;-74
2022/06/12 05:26:15;;;;;;;14.55;3.33;;;13.70;99.90;;;;;;4993657;28;20041;-73
2022/06/12 05:28:41;;;;;;;15.60;3.45;;;13.70;99.90;;;;;;4993092;28;20041;-74
2022/06/12 05:31:07;;;;;;;10.48;3.67;;;13.70;99.90;;;;;;4970434;28;20128;-74
2022/06/12 05:33:32;;;;;;;14.60;3.88;;;13.80;99.90;;;;;;4976946;28;20045;-74
2022/06/12 05:35:58;;;;;;;14.57;3.90;;;13.80;99.90;;;;;;5011156;28;20068;-74
2022/06/12 05:38:24;;;;;;;10.38;4.00;;;13.80;99.90;;;;;;4993144;28;20139;-74
2022/06/12 05:40:50;;;;;;;16.83;4.20;;;14.00;99.90;;;;;;4976906;28;20490;-74
2022/06/12 05:43:16;;;;;;;16.15;4.10;;;13.90;99.90;;;;;;4993858;28;20073;-74
2022/06/12 05:45:42;;;;;;;16.13;4.55;;;14.00;99.90;;;;;;4976667;28;20033;-74
2022/06/12 05:48:11;;;;;;;11.23;4.20;;;14.00;99.90;;;;;;4993377;28;20461;-74
2022/06/12 05:50:52;;;;;;;15.30;3.80;;;14.10;99.90;;;;;;4992858;28;20132;-74
2022/06/12 05:53:19;;;;;;;17.25;4.22;;;14.20;99.90;;;;;;4977159;28;20049;-74
2022/06/12 05:55:45;;;;;;;17.05;4.75;;;14.30;99.90;;;;;;4992990;28;20041;-74
2022/06/12 05:58:12;;;;;;;14.80;4.28;;;14.50;99.90;;;;;;4991906;28;20088;-74
2022/06/12 06:00:38;;;;;;;14.68;4.47;;;14.60;99.90;;;;;;4971560;28;20042;-74
2022/06/12 06:03:03;;;;;;;15.95;4.32;;;14.80;99.90;;;;;;4980854;28;20525;-74
2022/06/12 06:05:29;;;;;;;15.18;4.45;;;14.80;99.90;;;;;;4993109;28;20474;-74
2022/06/12 06:07:56;;;;;;;17.58;3.90;;;14.80;99.90;;;;;;4994562;28;20037;-74
2022/06/12 06:10:24;;;;;;;16.50;4.55;;;14.80;99.90;;;;;;4992460;28;20085;-74
2022/06/12 06:12:50;;;;;;;22.15;5.10;;;14.90;99.90;;;;;;4996628;28;20038;-74
2022/06/12 06:15:17;;;;;;;18.20;5.18;;;15.00;99.90;;;;;;4996336;28;20548;-74
2022/06/12 06:17:42;;;;;;;15.55;4.60;;;15.00;99.90;;;;;;4996351;28;20046;-74
2022/06/12 06:20:12;;;;;;;19.08;5.20;;;15.00;99.90;;;;;;4990065;28;20054;-74
2022/06/12 06:22:38;;;;;;;17.15;4.55;;;15.10;99.90;;;;;;4977366;28;20053;-74
2022/06/12 06:25:04;;;;;;;16.52;4.35;;;15.30;99.90;;;;;;5013980;28;20026;-74
2022/06/12 06:27:30;;;;;;;20.98;5.07;;;15.20;99.90;;;;;;4996339;28;20046;-74
2022/06/12 06:29:56;;;;;;;18.65;5.20;;;15.30;99.90;;;;;;4996058;28;20037;-74
2022/06/12 06:32:21;;;;;;;20.85;5.38;;;15.30;99.90;;;;;;4996152;28;20053;-74
2022/06/12 06:34:47;;;;;;;20.80;5.55;;;15.30;99.90;;;;;;4996451;28;20045;-74
2022/06/12 06:37:13;;;;;;;20.17;5.50;;;15.40;99.90;;;;;;4996268;28;20064;-74
2022/06/12 06:39:39;;;;;;;17.30;5.43;;;15.40;99.90;;;;;;4996218;28;20069;-75
2022/06/12 06:42:06;;;;;;;24.58;5.47;;;15.50;99.90;;;;;;4995987;28;20042;-74
2022/06/12 06:47:17;;;;;;;20.20;5.57;;;15.50;99.90;;;;;;4995136;28;20120;-74
2022/06/12 06:49:43;;;;;;;15.10;5.60;;;15.50;99.90;;;;;;4996245;28;20042;-74
2022/06/12 06:52:08;;;;;;;18.90;5.07;;;15.60;99.90;;;;;;4995812;28;20056;-74
2022/06/12 06:54:34;;;;;;;19.75;5.00;;;15.60;99.90;;;;;;4980471;28;20410;-74
2022/06/12 06:57:00;;;;;;;20.15;5.20;;;15.60;99.90;;;;;;4996003;28;20042;-74
2022/06/12 06:59:26;;;;;;;19.40;5.35;;;15.70;99.90;;;;;;4995466;28;20489;-74
2022/06/12 07:01:52;;;;;;;18.17;5.82;;;15.70;99.90;;;;;;4995838;28;20520;-74
2022/06/12 07:04:18;;;;;;;19.40;5.15;;;15.80;99.90;;;;;;4995310;28;20045;-74
2022/06/12 07:06:43;;;;;;;28.42;5.95;;;15.90;99.90;;;;;;4996075;28;20427;-74
2022/06/12 07:09:09;;;;;;;19.50;5.30;;;15.90;99.90;;;;;;4995350;28;20155;-74
2022/06/12 07:11:35;;;;;;;20.83;5.60;;;16.00;99.90;;;;;;4994993;28;20117;-75
2022/06/12 07:14:04;;;;;;;20.17;5.63;;;16.00;99.90;;;;;;4995553;28;20046;-74
2022/06/12 07:16:32;;;;;;;20.17;5.47;;;16.10;99.90;;;;;;4994176;28;20033;-74
2022/06/12 07:18:58;;;;;;;21.73;5.82;;;16.10;99.90;;;;;;4995095;28;20069;-75
2022/06/12 07:21:24;;;;;;;26.20;5.20;;;16.10;99.90;;;;;;4994661;28;20069;-74
2022/06/12 07:23:49;;;;;;;23.80;5.68;;;16.20;99.90;;;;;;4994764;28;20042;-75
2022/06/12 07:26:26;;;;;;;19.23;5.85;;;16.30;99.90;;;;;;4995467;28;20046;-74
2022/06/12 07:28:52;;;;;;;18.52;6.18;;;16.40;99.90;;;;;;5012787;28;20437;-75
2022/06/12 07:31:20;;;;;;;20.83;5.63;;;16.40;99.90;;;;;;4988330;28;20133;-74
2022/06/12 07:33:45;;;;;;;20.67;5.93;;;16.50;99.90;;;;;;4995038;28;20046;-74
2022/06/12 07:36:14;;;;;;;19.40;5.82;;;16.60;99.90;;;;;;4995248;28;20053;-74
2022/06/12 07:38:41;;;;;;;24.92;6.20;;;16.60;99.90;;;;;;4993916;28;20513;-74
2022/06/12 07:41:09;;;;;;;20.65;6.45;;;16.60;99.90;;;;;;5012722;28;20397;-75
2022/06/12 07:43:36;;;;;;;20.88;5.38;;;16.70;99.90;;;;;;4995513;28;20037;-75
2022/06/12 07:46:04;;;;;;;16.77;5.78;;;16.80;99.90;;;;;;4992381;28;20601;-75
2022/06/12 07:48:33;;;;;;;18.00;5.40;;;16.90;99.90;;;;;;4991493;28;20041;-76
2022/06/12 07:51:01;;;;;;;18.00;5.55;;;17.00;99.90;;;;;;4990114;28;20121;-75
2022/06/12 07:53:27;;;;;;;18.95;6.40;;;17.00;99.90;;;;;;4994709;28;20037;-75
2022/06/12 07:55:53;;;;;;;19.50;5.70;;;17.10;99.90;;;;;;4989642;28;20418;-75
2022/06/12 07:58:23;;;;;;;24.92;5.70;;;17.10;99.90;;;;;;4977640;28;20520;-75
2022/06/12 08:00:53;;;;;;;25.73;5.97;;;17.10;99.90;;;;;;4977847;28;20038;-75
2022/06/12 08:03:19;;;;;;;14.35;5.53;;;17.20;99.90;;;;;;4992708;28;20052;-75
2022/06/12 08:05:44;;;;;;;17.75;5.32;;;17.40;99.90;;;;;;4993851;28;20034;-75
2022/06/12 08:08:10;;;;;;;21.75;6.18;;;17.50;99.90;;;;;;4993703;28;20033;-75
2022/06/12 08:10:36;;;;;;;20.42;5.28;;;17.60;99.90;;;;;;4991757;28;20042;-75
2022/06/12 08:13:06;;;;;;;19.10;5.80;;;17.70;99.90;;;;;;4992534;28;20053;-75
2022/06/12 08:15:34;;;;;;;16.92;4.90;;;17.80;99.90;;;;;;4988634;28;20056;-75
2022/06/12 08:18:00;;;;;;;14.90;4.88;;;17.90;99.90;;;;;;4992363;28;20042;-75
2022/06/12 08:20:28;;;;;;;21.27;4.65;;;18.10;99.90;;;;;;4992436;28;20564;-75
2022/06/12 08:23:03;;;;;;;19.52;5.53;;;18.20;99.90;;;;;;4992395;28;20045;-75
2022/06/12 08:25:33;;;;;;;16.80;4.80;;;18.40;99.90;;;;;;4994427;28;20096;-75
2022/06/12 08:28:00;;;;;;;13.02;4.60;;;18.60;99.90;;;;;;4993971;28;20034;-75
2022/06/12 08:30:27;;;;;;;15.45;4.47;;;18.80;99.90;;;;;;4977773;28;20121;-75
2022/06/12 08:32:54;;;;;;;14.75;4.93;;;18.90;99.90;;;;;;4986414;28;20046;-75
2022/06/12 08:35:27;;;;;;;19.35;5.22;;;19.10;99.90;;;;;;5010186;28;20046;-75
2022/06/12 08:37:53;;;;;;;15.52;4.32;;;19.20;99.90;;;;;;4994064;28;20088;-75
2022/06/12 08:40:29;;;;;;;16.65;4.20;;;19.30;99.90;;;;;;4993681;28;20042;-75
2022/06/12 08:43:27;;;;;;;17.83;5.20;;;19.50;99.90;;;;;;4977858;28;20045;-75
2022/06/12 08:45:57;;;;;;;16.10;4.25;;;19.50;99.90;;;;;;4978904;28;20076;-75
2022/06/12 08:48:52;;;;;;;17.90;4.70;;;19.60;99.90;;;;;;4970106;28;20097;-75
2022/06/12 08:51:22;;;;;;;17.45;4.55;;;19.80;99.90;;;;;;4993745;28;20042;-75
2022/06/12 08:53:58;;;;;;;12.95;4.20;;;19.90;99.90;;;;;;4993795;28;20033;-75
2022/06/12 08:56:48;;;;;;;11.27;3.83;;;20.00;99.90;;;;;;4994188;28;20042;-75
2022/06/12 08:59:17;;;;;;;14.55;4.30;;;20.10;99.90;;;;;;4993473;28;20065;-75
2022/06/12 09:01:44;;;;;;;13.27;3.83;;;20.30;99.90;;;;;;4993792;28;20073;-75
2022/06/12 09:04:12;;;;;;;14.13;3.90;;;20.50;99.90;;;;;;4988359;28;20033;-75
2022/06/12 09:06:44;;;;;;;14.90;4.18;;;20.70;99.90;;;;;;4994043;28;20049;-75
2022/06/12 09:09:25;;;;;;;;;;;20.80;99.90;;;;;;4977868;28;20382;-75
2022/06/12 09:12:13;;;;;;;15.23;3.88;;;21.00;99.90;;;;;;4993334;28;20363;-75
2022/06/12 09:14:53;;;;;;;13.65;3.75;;;21.20;99.90;;;;;;4993943;28;20084;-75
2022/06/12 09:17:47;;;;;;;14.00;3.70;;;21.30;99.90;;;;;;4976878;28;20056;-76
2022/06/12 09:20:31;;;;;;;16.48;3.88;;;21.40;99.90;;;;;;4993475;28;20049;-76
2022/06/12 09:23:15;;;;;;;10.80;3.15;;;21.30;99.90;;;;;;4993874;28;20108;-76
2022/06/12 09:26:18;;;;;;;10.63;3.55;;;21.20;99.90;;;;;;4988144;28;20042;-76
2022/06/12 09:29:10;;;;;;;13.80;3.70;;;21.20;99.90;;;;;;5008175;28;20037;-75
2022/06/12 09:32:26;;;;;;;16.60;4.13;;;21.50;99.90;;;;;;4993373;28;20467;-76
2022/06/12 09:35:04;;;;;;;13.52;3.15;;;21.50;99.90;;;;;;4919415;28;20051;-76
2022/06/12 09:38:19;;;;;;;14.25;3.67;;;21.80;99.90;;;;;;4992167;28;20514;-76
2022/06/12 09:40:53;;;;;;;13.68;3.05;;;21.80;99.90;;;;;;4991550;28;20042;-76
2022/06/12 09:43:32;;;;;;;11.25;3.25;;;21.80;99.90;;;;;;4993568;28;20405;-76
2022/06/12 09:46:28;;;;;;;10.32;3.30;;;21.70;99.90;;;;;;4994320;28;20596;-76
2022/06/12 09:49:16;;;;;;;8.77;3.30;;;21.40;99.90;;;;;;4996769;28;20129;-76
2022/06/12 09:52:10;;;;;;;11.45;3.10;;;21.20;99.90;;;;;;4991883;28;20451;-76
2022/06/12 09:54:57;;;;;;;13.82;3.40;;;21.20;99.90;;;;;;4983960;28;20064;-76
2022/06/12 09:57:23;;;;;;;9.13;2.92;;;21.10;99.90;;;;;;4992193;28;20053;-75
2022/06/12 09:59:52;;;;;;;7.28;2.80;;;21.00;99.90;;;;;;4997316;28;20042;-76
2022/06/12 10:03:03;;;;;;;9.73;2.88;;;21.20;99.90;;;;;;4996968;28;20113;-76
2022/06/12 10:05:35;;;;;;;10.10;2.47;;;21.60;98.30;;;;;;5013476;28;20049;-76
2022/06/12 10:08:07;;;;;;;;;;;21.90;98.00;;;;;;5014383;28;20025;-76
2022/06/12 10:10:49;;;;;;;9.23;2.53;;;22.10;96.30;;;;;;4985186;28;20263;-76
2022/06/12 10:13:21;;;;;;;7.80;2.10;;;22.30;93.90;;;;;;4995977;28;20053;-76
2022/06/12 10:15:54;;;;;;;7.53;2.20;;;22.40;91.20;;;;;;4980652;28;20128;-75
2022/06/12 10:18:36;;;;;;;7.55;2.30;;;22.70;92.80;;;;;;4993872;28;20112;-76
2022/06/12 10:21:13;;;;;;;7.22;2.10;;;23.00;92.70;;;;;;4996941;28;20042;-76
2022/06/12 10:23:39;;;;;;;6.38;2.45;;;23.30;92.20;;;;;;4996403;28;20490;-76
2022/06/12 10:26:33;;;;;;;8.57;2.55;;;23.40;90.60;;;;;;4997109;28;20046;-76
2022/06/12 10:29:07;;;;;;;7.85;2.30;;;23.10;87.60;;;;;;4979016;28;20084;-75
2022/06/12 10:31:44;;;;;;;9.70;2.90;;;23.00;90.40;;;;;;4997398;28;20045;-76
2022/06/12 10:34:21;;;;;;;9.32;2.50;;;23.20;91.40;;;;;;4995486;28;20042;-76
2022/06/12 10:36:48;;;;;;;7.65;2.00;;;23.50;91.40;;;;;;4996748;28;20132;-76
2022/06/12 10:39:20;;;;;;;6.07;1.90;;;23.90;90.30;;;;;;4992649;28;20172;-76
2022/06/12 10:42:01;;;;;;;5.80;2.25;;;24.20;87.90;;;;;;4996398;28;20069;-76
2022/06/12 10:44:30;;;;;;;10.80;2.67;;;24.40;84.30;;;;;;4989343;28;20048;-76
2022/06/12 10:47:15;;;;;;;7.75;2.10;;;24.40;83.60;;;;;;4991377;28;20042;-76
2022/06/12 10:49:41;;;;;;;6.70;2.22;;;24.50;77.80;;;;;;4975087;28;20042;-76
2022/06/12 10:54:45;;;;;;;6.43;2.05;;;24.20;74.40;;;;;;5004545;28;20053;-76
2022/06/12 10:57:37;;;;;;;7.35;2.30;;;24.10;74.60;;;;;;4993614;28;20042;-76
2022/06/12 11:00:18;;;;;;;;;;;24.00;71.30;;;;;;4996609;28;20041;-77
2022/06/12 11:02:49;;;;;;;6.05;2.30;;;23.90;69.00;;;;;;4980779;28;19917;-76
2022/06/12 11:05:28;;;;;;;8.60;2.08;;;23.80;72.60;;;;;;5012067;28;20040;-76
2022/06/12 11:08:03;;;;;;;6.95;1.95;;;24.00;73.50;;;;;;5004956;28;20033;-76
2022/06/12 11:10:41;;;;;;;6.00;2.15;;;24.20;70.20;;;;;;5011859;28;20048;-76
2022/06/12 11:13:12;;;;;;;7.15;2.42;;;24.40;72.40;;;;;;5006984;28;20050;-76
2022/06/12 11:15:58;;;;;;;6.03;1.90;;;24.50;70.40;;;;;;4979577;28;20776;-76
2022/06/12 11:18:45;;;;;;;6.50;2.15;;;24.60;67.00;;;;;;4998819;28;20527;-77
2022/06/12 11:21:26;;;;;;;4.60;2.00;;;24.80;68.70;;;;;;4988764;28;20044;-76
2022/06/12 11:24:11;;;;;;;9.90;2.57;;;24.80;67.00;;;;;;5009816;28;20033;-76
2022/06/12 11:26:52;;;;;;;7.57;2.00;;;24.60;67.50;;;;;;4989856;28;20044;-76
2022/06/12 11:29:48;;;;;;;5.10;1.93;;;24.50;67.30;;;;;;5002500;28;20045;-76
2022/06/12 11:32:47;;;;;;;5.97;2.42;;;24.70;66.50;;;;;;5016186;28;20037;-76
2022/06/12 11:35:38;;;;;;;5.30;1.70;;;24.70;65.80;;;;;;5014665;28;20042;-76
2022/06/12 11:38:26;;;;;;;5.77;2.10;;;24.70;64.60;;;;;;5012966;28;20049;-76
2022/06/12 11:41:16;;;;;;;6.95;2.10;;;24.80;65.90;;;;;;5009979;28;20384;-77
2022/06/12 11:44:15;;;;;;;5.53;1.90;;;24.90;64.30;;;;;;4993046;28;20513;-78
2022/06/12 11:46:43;;;;;;;7.75;1.90;;;24.90;63.20;;;;;;4970107;28;20041;-76
2022/06/12 11:49:39;;;;;;;9.85;2.13;;;24.70;64.10;;;;;;4995616;28;20076;-77
2022/06/12 11:52:16;;;;;;;7.13;1.90;;;24.80;61.70;;;;;;5018930;28;20490;-77
2022/06/12 11:54:57;;;;;;;9.10;2.20;;;24.80;60.90;;;;;;5007488;28;20071;-77
2022/06/12 11:58:07;;;;;;;4.38;1.83;;;24.70;61.10;;;;;;5004596;28;20559;-75
2022/06/12 12:00:53;;;;;;;4.63;1.75;;;24.70;61.90;;;;;;4898593;29;20055;-78
2022/06/12 12:03:48;;;;;;;4.22;1.50;;;24.80;61.10;;;;;;4980972;28;20060;-76
2022/06/12 12:06:40;;;;;;;5.03;1.65;;;24.80;59.60;;;;;;5009112;28;20037;-77
2022/06/12 12:09:18;;;;;;;5.32;1.55;;;24.80;59.10;;;;;;4991446;28;20045;-78
2022/06/12 12:11:49;;;;;;;4.57;1.73;;;24.90;59.40;;;;;;5009881;28;20037;-78
2022/06/12 12:14:24;;;;;;;5.55;1.70;;;24.80;59.40;;;;;;5019195;28;20059;-77
2022/06/12 12:16:51;;;;;;;6.05;1.70;;;24.80;58.50;;;;;;4996205;28;20068;-77
2022/06/12 12:19:36;;;;;;;4.68;1.60;;;24.70;58.30;;;;;;4988370;28;20029;-77
2022/06/12 12:22:08;;;;;;;9.23;1.98;;;24.60;57.90;;;;;;5020551;28;20041;-75
2022/06/12 12:24:49;;;;;;;6.30;1.92;;;24.60;59.50;;;;;;4999946;28;20041;-78
2022/06/12 12:27:37;;;;;;;6.10;2.25;;;24.80;60.50;;;;;;5011605;28;20026;-77
2022/06/12 12:30:06;;;;;;;4.45;1.88;;;25.00;60.40;;;;;;5018270;28;20046;-78
2022/06/12 12:32:33;;;;;;;10.02;2.25;;;25.20;60.20;;;;;;4997730;28;20045;-77
2022/06/12 12:35:00;;;;;;;5.15;1.90;;;25.30;59.90;;;;;;5010379;28;20100;-77
2022/06/12 12:43:17;;;;;;;4.28;1.75;;;25.40;56.30;;;;;;5019847;28;20056;-76
2022/06/12 12:45:43;;;;;;;4.22;1.75;;;25.40;56.50;;;;;;5011269;28;20037;-77
2022/06/12 12:48:11;;;;;;;6.43;1.98;;;25.40;56.40;;;;;;4997110;28;20095;-73
2022/06/12 12:50:46;;;;;;;5.13;1.52;;;25.40;56.30;;;;;;4992275;28;20065;-78
2022/06/12 12:53:26;;;;;;;3.63;1.42;;;25.40;55.30;;;;;;4995863;28;20045;-76
2022/06/12 12:56:11;;;;;;;3.63;1.50;;;25.30;55.30;;;;;;5024531;28;20117;-78
2022/06/12 12:58:54;;;;;;;4.22;1.70;;;25.20;56.20;;;;;;5026184;28;20034;-79
2022/06/12 13:01:22;;;;;;;6.03;1.65;;;25.20;56.60;;;;;;4989127;28;20042;-78
2022/06/12 13:03:53;;;;;;;7.20;1.90;;;25.20;56.30;;;;;;5029059;28;20489;-78
2022/06/12 13:06:48;;;;;;;6.78;2.22;;;25.20;56.50;;;;;;5010577;28;20038;-78
2022/06/12 13:09:46;;;;;;;7.28;1.98;;;25.20;56.00;;;;;;4978499;28;20159;-79
2022/06/12 13:12:11;;;;;;;5.55;1.70;;;25.00;56.30;;;;;;5005235;28;20571;-79
2022/06/12 13:14:54;;;;;;;5.10;1.90;;;25.00;56.20;;;;;;5011291;28;20045;-78
2022/06/12 13:17:43;;;;;;;8.25;2.00;;;25.00;55.90;;;;;;5025247;28;20494;-78
2022/06/12 13:20:30;;;;;;;5.70;1.90;;;25.00;56.50;;;;;;5008834;28;20671;-78
2022/06/12 13:23:22;;;;;;;6.72;1.83;;;25.10;56.70;;;;;;5027335;28;20072;-78
2022/06/12 13:25:51;;;;;;;14.30;2.00;;;25.10;55.20;;;;;;5019363;28;20041;-78
2022/06/12 13:28:29;;;;;;;6.65;2.22;;;25.10;55.20;;;;;;5026776;28;20030;-78
2022/06/12 13:30:56;;;;;;;6.22;1.70;;;25.00;54.50;;;;;;5007768;28;20050;-78
2022/06/12 13:33:24;;;;;;;5.93;2.10;;;25.00;54.90;;;;;;5031384;28;20124;-78
2022/06/12 13:35:56;;;;;;;6.90;2.00;;;25.00;54.70;;;;;;5031290;28;20033;-78